Time;durP1;ratioP1;P1;durP2;ratioP2;P2;SDS_P1;SDS_P2;PMS_P1;PMS_P2;Temp;Humidity;BMP_temperature;BMP_pressure;BME280_temperature;BME280_humidity;BME280_pressure;Samples;Min_cycle;Max_cycle;Signal;HPM_P1;HPM_P2
2021/09/25 00:02:32;;;;;;;0.30;0.30;;;;;;;15.00;98.58;100615.75;5101437;28;20044;-83
2021/09/25 00:05:07;;;;;;;0.82;0.30;;;;;;;15.03;97.60;100606.91;5104328;28;20043;-82
2021/09/25 00:07:40;;;;;;;0.30;0.30;;;;;;;15.08;97.76;100608.72;5100380;28;20487;-83
2021/09/25 00:10:11;;;;;;;0.30;0.30;;;;;;;14.94;98.01;100606.03;5096277;28;20070;-82
2021/09/25 00:12:45;;;;;;;0.47;0.40;;;;;;;14.99;98.21;100616.88;5095313;28;20426;-83
2021/09/25 00:15:13;;;;;;;0.30;0.30;;;;;;;14.91;99.10;100618.41;5111689;27;20047;-83
2021/09/25 00:17:47;;;;;;;0.30;0.30;;;;;;;15.00;99.05;100625.91;5091457;28;20040;-82
2021/09/25 00:20:22;;;;;;;0.55;0.35;;;;;;;14.92;99.80;100624.72;5097053;28;20040;-83
2021/09/25 00:22:55;;;;;;;0.40;0.40;;;;;;;14.96;99.12;100620.25;5091919;28;20086;-83
2021/09/25 00:25:31;;;;;;;0.30;0.30;;;;;;;14.93;100.00;100629.09;5096905;28;20048;-82
2021/09/25 00:28:04;;;;;;;0.40;0.40;;;;;;;14.87;99.77;100620.16;5093257;28;20506;-83
2021/09/25 00:30:38;;;;;;;0.30;0.30;;;;;;;14.84;99.74;100626.25;5095198;28;20039;-82
2021/09/25 00:33:06;;;;;;;0.43;0.30;;;;;;;14.95;99.21;100610.41;5095334;27;20126;-83
2021/09/25 00:35:41;;;;;;;0.60;0.30;;;;;;;14.96;99.44;100622.97;5104592;28;20054;-83
2021/09/25 00:38:09;;;;;;;0.40;0.40;;;;;;;14.93;99.17;100629.91;5099324;28;20711;-82
2021/09/25 00:40:39;;;;;;;0.40;0.30;;;;;;;14.98;98.51;100622.66;5094589;28;20071;-82
2021/09/25 00:43:07;;;;;;;0.30;0.30;;;;;;;15.06;98.30;100625.47;5100982;28;20051;-82
2021/09/25 00:45:40;;;;;;;0.30;0.30;;;;;;;14.94;98.60;100611.50;5099855;28;20495;-82
2021/09/25 00:48:09;;;;;;;0.30;0.30;;;;;;;14.83;99.31;100616.44;5090626;28;20059;-82
2021/09/25 00:50:37;;;;;;;0.30;0.30;;;;;;;14.84;99.13;100612.56;5096070;28;20055;-82
2021/09/25 00:53:11;;;;;;;0.25;0.25;;;;;;;14.78;99.37;100622.84;5095554;28;20395;-84
2021/09/25 00:55:46;;;;;;;0.30;0.30;;;;;;;14.72;99.50;100623.25;5110572;27;20056;-83
2021/09/25 00:58:19;;;;;;;0.30;0.30;;;;;;;14.91;98.64;100621.16;5096676;28;20052;-83
2021/09/25 01:00:47;;;;;;;0.30;0.30;;;;;;;14.84;99.13;100630.94;5107069;28;20491;-82
2021/09/25 01:03:16;;;;;;;0.30;0.30;;;;;;;14.82;99.03;100628.53;5099409;28;20388;-82
2021/09/25 01:05:45;;;;;;;0.28;0.28;;;;;;;14.85;98.98;100635.31;5089671;28;20059;-81
2021/09/25 01:08:14;;;;;;;0.30;0.30;;;;;;;14.80;98.99;100636.22;5105853;28;20056;-82
2021/09/25 01:10:48;;;;;;;0.30;0.30;;;;;;;14.84;98.43;100628.22;5101014;27;20074;-82
2021/09/25 01:13:17;;;;;;;0.30;0.30;;;;;;;14.80;98.70;100628.00;5106278;28;20044;-82
2021/09/25 01:15:46;;;;;;;0.45;0.38;;;;;;;14.79;98.83;100634.63;5092268;28;20043;-81
2021/09/25 01:18:15;;;;;;;0.22;0.20;;;;;;;14.84;98.47;100634.47;5103827;28;20048;-82
2021/09/25 01:20:43;;;;;;;0.57;0.30;;;;;;;14.72;99.42;100626.00;5101895;28;20036;-82
2021/09/25 01:23:17;;;;;;;0.40;0.35;;;;;;;14.73;99.40;100631.16;5100566;28;20044;-83
2021/09/25 01:25:50;;;;;;;0.35;0.35;;;;;;;14.85;98.66;100627.09;5104430;28;20042;-82
2021/09/25 01:28:19;;;;;;;0.47;0.32;;;;;;;14.86;98.69;100634.16;5110639;28;20043;-82
2021/09/25 01:30:52;;;;;;;0.30;0.30;;;;;;;14.85;98.68;100616.94;5109638;28;20133;-82
2021/09/25 01:33:28;;;;;;;0.70;0.20;;;;;;;14.77;99.58;100634.09;5101072;28;20043;-82
2021/09/25 01:35:57;;;;;;;0.20;0.20;;;;;;;14.70;99.08;100620.03;5100128;28;20048;-82
2021/09/25 01:38:32;;;;;;;0.30;0.30;;;;;;;14.79;99.47;100638.16;5099969;28;20044;-82
2021/09/25 01:41:05;;;;;;;0.30;0.30;;;;;;;14.78;99.59;100649.44;5099673;28;20054;-82
2021/09/25 01:43:34;;;;;;;0.40;0.40;;;;;;;14.85;98.92;100638.84;5104281;27;20047;-83
2021/09/25 01:46:03;;;;;;;0.45;0.30;;;;;;;14.87;98.86;100628.38;5102270;28;20067;-82
2021/09/25 01:48:36;;;;;;;0.22;0.22;;;;;;;14.76;99.71;100624.25;5101433;28;20055;-82
2021/09/25 01:51:09;;;;;;;0.30;0.30;;;;;;;14.70;100.00;100647.44;5101698;28;20051;-82
2021/09/25 01:53:44;;;;;;;0.63;0.40;;;;;;;14.89;99.89;100639.84;5095400;28;20052;-83
2021/09/25 01:56:17;;;;;;;0.50;0.30;;;;;;;14.77;100.00;100639.59;5102048;28;20043;-83
2021/09/25 01:58:45;;;;;;;0.30;0.30;;;;;;;14.70;100.00;100628.25;5099931;28;20044;-82
2021/09/25 02:01:19;;;;;;;0.43;0.40;;;;;;;14.56;100.00;100631.78;5101522;28;20047;-83
2021/09/25 02:03:47;;;;;;;0.40;0.30;;;;;;;14.84;100.00;100650.13;5099695;28;20048;-83
2021/09/25 02:06:20;;;;;;;0.20;0.20;;;;;;;14.80;100.00;100641.69;5100287;28;20054;-83
2021/09/25 02:08:56;;;;;;;0.28;0.25;;;;;;;14.65;100.00;100636.56;5091007;28;20059;-82
2021/09/25 02:11:25;;;;;;;0.30;0.30;;;;;;;14.78;100.00;100652.19;5097273;28;20044;-82
2021/09/25 02:13:58;;;;;;;0.43;0.30;;;;;;;14.65;100.00;100658.50;5090708;28;20067;-83
2021/09/25 02:16:31;;;;;;;0.30;0.30;;;;;;;14.71;100.00;100660.00;5103325;28;20633;-82
2021/09/25 02:19:05;;;;;;;0.35;0.25;;;;;;;14.62;100.00;100659.88;5098965;28;20043;-82
2021/09/25 02:21:38;;;;;;;0.30;0.30;;;;;;;14.55;100.00;100665.78;5098731;28;20070;-82
2021/09/25 02:24:13;;;;;;;0.30;0.30;;;;;;;14.55;100.00;100670.44;5101274;28;20436;-82
2021/09/25 02:26:46;;;;;;;0.30;0.30;;;;;;;14.40;100.00;100663.38;5099049;28;20107;-83
2021/09/25 02:29:15;;;;;;;0.40;0.40;;;;;;;14.37;100.00;100672.19;5103879;28;20062;-83
2021/09/25 02:31:43;;;;;;;0.20;0.20;;;;;;;14.42;100.00;100672.91;5098744;28;20786;-83
2021/09/25 02:34:11;;;;;;;0.30;0.30;;;;;;;14.30;100.00;100678.06;5105233;28;20050;-83
2021/09/25 02:36:45;;;;;;;0.30;0.30;;;;;;;14.29;100.00;100682.75;5105735;27;20051;-82
2021/09/25 02:39:19;;;;;;;0.40;0.30;;;;;;;14.30;100.00;100689.03;5099295;28;20555;-83
2021/09/25 02:41:47;;;;;;;0.35;0.30;;;;;;;14.20;100.00;100689.25;5104798;28;20063;-83
2021/09/25 02:44:21;;;;;;;0.30;0.30;;;;;;;14.18;100.00;100675.84;5102243;28;20055;-81
2021/09/25 02:46:54;;;;;;;0.52;0.38;;;;;;;14.16;100.00;100682.75;5102419;28;20552;-82
2021/09/25 02:49:28;;;;;;;0.25;0.25;;;;;;;14.19;100.00;100682.94;5101193;28;20407;-83
2021/09/25 02:52:01;;;;;;;0.43;0.20;;;;;;;14.24;100.00;100690.25;5096421;28;20043;-82
2021/09/25 02:54:35;;;;;;;0.30;0.30;;;;;;;14.24;100.00;100671.09;5099540;28;20043;-83
2021/09/25 02:57:04;;;;;;;0.30;0.30;;;;;;;14.17;100.00;100679.72;5100461;28;20437;-83
2021/09/25 02:59:37;;;;;;;0.75;0.50;;;;;;;14.18;100.00;100677.78;5113220;27;20052;-83
2021/09/25 03:02:05;;;;;;;0.30;0.30;;;;;;;14.15;100.00;100686.59;5119767;27;20056;-83
2021/09/25 03:04:34;;;;;;;0.30;0.30;;;;;;;14.08;100.00;100684.25;5100020;28;20391;-83
2021/09/25 03:07:08;;;;;;;0.40;0.40;;;;;;;14.02;100.00;100680.00;5098472;28;20047;-83
2021/09/25 03:09:42;;;;;;;0.50;0.50;;;;;;;14.17;100.00;100692.56;5097592;28;20051;-83
2021/09/25 03:12:10;;;;;;;0.55;0.38;;;;;;;14.04;100.00;100696.94;5099257;28;20051;-82
2021/09/25 03:14:44;;;;;;;0.40;0.40;;;;;;;14.10;100.00;100691.06;5103637;28;20056;-83
2021/09/25 03:17:18;;;;;;;0.75;0.47;;;;;;;14.05;100.00;100702.09;5097751;28;20048;-83
2021/09/25 03:19:46;;;;;;;0.40;0.40;;;;;;;14.12;100.00;100691.56;5100657;28;20400;-83
2021/09/25 03:22:15;;;;;;;0.85;0.43;;;;;;;14.03;100.00;100701.59;5116807;27;20044;-83
2021/09/25 03:24:50;;;;;;;0.30;0.30;;;;;;;14.03;100.00;100704.34;5096688;28;20491;-83
2021/09/25 03:27:24;;;;;;;0.30;0.30;;;;;;;14.06;100.00;100702.91;5098780;28;20036;-83
2021/09/25 03:29:57;;;;;;;0.43;0.35;;;;;;;14.05;100.00;100706.75;5092225;28;20484;-83
2021/09/25 03:32:31;;;;;;;0.40;0.40;;;;;;;14.01;100.00;100703.00;5092128;28;20059;-83
2021/09/25 03:35:05;;;;;;;0.40;0.40;;;;;;;14.15;100.00;100709.28;5100409;28;20040;-82
2021/09/25 03:37:38;;;;;;;0.50;0.40;;;;;;;14.04;100.00;100705.94;5104020;28;20492;-83
2021/09/25 03:40:13;;;;;;;0.50;0.50;;;;;;;14.14;100.00;100713.16;5105296;28;20050;-84
2021/09/25 03:42:47;;;;;;;1.13;0.60;;;;;;;14.03;100.00;100718.00;5103108;28;20061;-83
2021/09/25 03:45:20;;;;;;;0.55;0.40;;;;;;;14.07;100.00;100708.09;5106439;28;20048;-82
2021/09/25 03:47:54;;;;;;;0.40;0.40;;;;;;;14.14;100.00;100712.34;5116322;27;20056;-82
2021/09/25 03:50:28;;;;;;;0.45;0.30;;;;;;;14.07;100.00;100710.81;5099865;28;20051;-83
2021/09/25 03:52:56;;;;;;;0.63;0.40;;;;;;;14.11;100.00;100714.59;5096344;28;20044;-83
2021/09/25 03:55:30;;;;;;;0.73;0.40;;;;;;;14.17;100.00;100720.75;5097493;28;20043;-84
2021/09/25 03:58:04;;;;;;;0.52;0.40;;;;;;;14.07;100.00;100718.22;5099317;28;20044;-83
2021/09/25 04:00:42;;;;;;;0.50;0.40;;;;;;;14.09;100.00;100727.75;5095031;28;20488;-83
2021/09/25 04:03:15;;;;;;;0.47;0.40;;;;;;;14.12;100.00;100724.38;5096899;28;20051;-83
2021/09/25 04:05:48;;;;;;;0.38;0.38;;;;;;;14.09;100.00;100713.25;5104574;28;20051;-82
2021/09/25 04:08:21;;;;;;;0.30;0.30;;;;;;;14.07;100.00;100716.31;5101694;28;20055;-83
2021/09/25 04:10:56;;;;;;;0.50;0.50;;;;;;;14.00;100.00;100713.13;5098932;28;20056;-82
2021/09/25 04:13:29;;;;;;;0.40;0.40;;;;;;;14.00;100.00;100715.88;5101751;28;20044;-82
2021/09/25 04:15:57;;;;;;;1.42;0.40;;;;;;;14.10;100.00;100721.16;5100163;27;20048;-82
2021/09/25 04:18:31;;;;;;;0.70;0.50;;;;;;;14.20;100.00;100724.81;5096978;28;20059;-83
2021/09/25 04:21:04;;;;;;;0.57;0.47;;;;;;;14.10;100.00;100718.44;5097022;28;20036;-82
2021/09/25 04:23:37;;;;;;;0.90;0.50;;;;;;;14.10;100.00;100704.75;5101574;28;20036;-82
2021/09/25 04:26:12;;;;;;;0.47;0.47;;;;;;;14.16;100.00;100723.81;5104961;28;20480;-82
2021/09/25 04:28:45;;;;;;;0.47;0.47;;;;;;;14.15;100.00;100728.44;5096855;28;20118;-83
2021/09/25 04:31:20;;;;;;;0.57;0.50;;;;;;;14.09;100.00;100722.25;5095611;28;20054;-83
2021/09/25 04:33:53;;;;;;;0.52;0.50;;;;;;;14.22;100.00;100717.91;5100957;28;20055;-83
2021/09/25 04:36:26;;;;;;;0.75;0.50;;;;;;;14.14;100.00;100720.56;5102889;27;20035;-82
2021/09/25 04:38:59;;;;;;;0.50;0.50;;;;;;;14.12;100.00;100712.66;5093744;28;20063;-83
2021/09/25 04:41:34;;;;;;;0.50;0.50;;;;;;;14.14;100.00;100715.91;5098548;28;20059;-83
2021/09/25 04:44:13;;;;;;;0.40;0.40;;;;;;;14.29;100.00;100721.06;5093636;28;20071;-82
2021/09/25 04:46:50;;;;;;;0.60;0.40;;;;;;;14.17;100.00;100730.88;5100225;28;20055;-82
2021/09/25 04:49:23;;;;;;;0.52;0.50;;;;;;;14.19;100.00;100728.66;5095866;28;20043;-81
2021/09/25 04:51:56;;;;;;;0.50;0.50;;;;;;;14.22;100.00;100734.34;5092282;28;20055;-82
2021/09/25 04:54:29;;;;;;;0.70;0.60;;;;;;;14.31;100.00;100728.16;5103360;28;20040;-81
2021/09/25 04:57:04;;;;;;;0.40;0.40;;;;;;;14.17;100.00;100739.94;5100161;28;20047;-82
2021/09/25 04:59:37;;;;;;;0.70;0.50;;;;;;;14.16;100.00;100740.22;5103067;28;20040;-82
2021/09/25 05:02:10;;;;;;;0.63;0.55;;;;;;;14.10;100.00;100740.31;5102984;28;20044;-83
2021/09/25 05:04:44;;;;;;;0.95;0.60;;;;;;;14.23;100.00;100735.97;5096492;28;20067;-83
2021/09/25 05:07:17;;;;;;;0.40;0.40;;;;;;;14.18;100.00;100740.72;5092831;28;20102;-82
2021/09/25 05:09:50;;;;;;;0.50;0.50;;;;;;;14.21;100.00;100751.88;5103161;28;20525;-82
2021/09/25 05:12:25;;;;;;;0.50;0.50;;;;;;;14.23;100.00;100757.84;5101708;28;20039;-83
2021/09/25 05:14:58;;;;;;;0.50;0.50;;;;;;;14.21;100.00;100751.06;5103923;28;20046;-83
2021/09/25 05:17:32;;;;;;;0.50;0.50;;;;;;;14.16;100.00;100749.25;5100907;28;20058;-82
2021/09/25 05:20:00;;;;;;;0.50;0.50;;;;;;;14.23;100.00;100757.06;5103052;28;20060;-81
2021/09/25 05:22:34;;;;;;;0.50;0.50;;;;;;;14.24;100.00;100754.00;5117361;27;20044;-82
2021/09/25 05:25:02;;;;;;;0.50;0.50;;;;;;;14.26;100.00;100762.72;5102439;28;20431;-83
2021/09/25 05:27:37;;;;;;;0.40;0.40;;;;;;;14.28;100.00;100765.19;5103737;28;20048;-82
2021/09/25 05:30:07;;;;;;;0.85;0.60;;;;;;;14.32;100.00;100768.09;5104106;28;20051;-83
2021/09/25 05:32:40;;;;;;;0.50;0.50;;;;;;;14.23;100.00;100768.81;5105195;28;20062;-83
2021/09/25 05:35:09;;;;;;;0.40;0.40;;;;;;;14.35;100.00;100767.50;5100179;28;20760;-82
2021/09/25 05:37:38;;;;;;;0.50;0.50;;;;;;;14.34;100.00;100774.09;5100078;28;20039;-82
2021/09/25 05:40:12;;;;;;;0.73;0.60;;;;;;;14.27;100.00;100779.97;5097028;28;20484;-82
2021/09/25 05:42:47;;;;;;;0.50;0.50;;;;;;;14.32;100.00;100785.38;5101398;28;20051;-80
2021/09/25 05:45:16;;;;;;;0.50;0.50;;;;;;;14.45;100.00;100775.53;5107278;27;20054;-82
2021/09/25 05:47:45;;;;;;;0.60;0.60;;;;;;;14.38;100.00;100781.41;5105372;28;20062;-81
2021/09/25 05:50:13;;;;;;;0.60;0.60;;;;;;;14.43;100.00;100789.53;5104070;28;20046;-82
2021/09/25 05:52:42;;;;;;;0.65;0.65;;;;;;;14.49;100.00;100789.44;5099749;28;20439;-82
2021/09/25 05:55:15;;;;;;;0.60;0.60;;;;;;;14.39;100.00;100793.97;5104256;28;20511;-82
2021/09/25 05:57:50;;;;;;;0.77;0.60;;;;;;;14.46;100.00;100791.66;5103800;28;20051;-83
2021/09/25 06:00:19;;;;;;;0.85;0.70;;;;;;;14.40;100.00;100792.03;5100696;28;20040;-82
2021/09/25 06:02:52;;;;;;;0.60;0.60;;;;;;;14.62;100.00;100794.09;5102265;28;20055;-82
2021/09/25 06:05:25;;;;;;;0.63;0.50;;;;;;;14.71;100.00;100796.97;5098556;28;20502;-82
2021/09/25 06:07:53;;;;;;;0.60;0.60;;;;;;;14.57;100.00;100797.75;5114088;28;20055;-81
2021/09/25 06:10:27;;;;;;;1.55;0.80;;;;;;;14.55;100.00;100797.22;5100728;28;20047;-81
2021/09/25 06:13:03;;;;;;;0.55;0.55;;;;;;;14.47;100.00;100789.72;5097053;28;20042;-84
2021/09/25 06:15:37;;;;;;;0.60;0.60;;;;;;;14.48;100.00;100798.75;5097053;28;20514;-82
2021/09/25 06:18:10;;;;;;;0.55;0.55;;;;;;;14.54;100.00;100792.06;5100431;28;20708;-81
2021/09/25 06:20:43;;;;;;;0.60;0.60;;;;;;;14.59;100.00;100803.72;5099600;28;20055;-81
2021/09/25 06:23:12;;;;;;;0.60;0.60;;;;;;;14.70;100.00;100792.59;5096686;28;20043;-82
2021/09/25 06:25:45;;;;;;;0.60;0.60;;;;;;;14.62;100.00;100803.16;5102646;28;20492;-84
2021/09/25 06:28:15;;;;;;;0.70;0.60;;;;;;;14.59;100.00;100792.75;5094474;28;20078;-83
2021/09/25 06:30:48;;;;;;;0.85;0.80;;;;;;;14.65;100.00;100798.19;5101712;28;20052;-84
2021/09/25 06:33:21;;;;;;;0.93;0.90;;;;;;;14.60;100.00;100805.34;5097248;28;20040;-82
2021/09/25 06:35:49;;;;;;;0.70;0.70;;;;;;;14.65;100.00;100817.34;5102971;28;20047;-82
2021/09/25 06:38:18;;;;;;;0.70;0.70;;;;;;;14.67;100.00;100824.16;5095359;28;20048;-82
2021/09/25 06:40:51;;;;;;;0.80;0.80;;;;;;;14.62;100.00;100826.94;5093570;28;20040;-82
2021/09/25 06:43:21;;;;;;;0.73;0.70;;;;;;;14.69;100.00;100827.38;5093308;28;20063;-83
2021/09/25 06:45:54;;;;;;;1.00;0.80;;;;;;;14.68;100.00;100833.16;5103571;28;20044;-83
2021/09/25 06:48:27;;;;;;;0.75;0.75;;;;;;;14.65;100.00;100825.56;5098208;28;20044;-84
2021/09/25 06:51:01;;;;;;;0.70;0.70;;;;;;;14.70;100.00;100831.75;5100873;28;20043;-84
2021/09/25 06:53:29;;;;;;;1.42;0.80;;;;;;;14.73;100.00;100838.56;5103905;28;20070;-83
2021/09/25 06:56:04;;;;;;;0.85;0.80;;;;;;;14.62;100.00;100826.94;5102263;28;20051;-83
2021/09/25 06:58:38;;;;;;;0.90;0.80;;;;;;;14.66;100.00;100835.41;5099122;28;20047;-83
2021/09/25 07:01:12;;;;;;;1.85;0.98;;;;;;;14.76;100.00;100826.97;5094820;28;20399;-83
2021/09/25 07:03:41;;;;;;;1.13;0.90;;;;;;;14.74;100.00;100837.44;5091759;28;20040;-83
2021/09/25 07:06:15;;;;;;;1.10;0.80;;;;;;;14.87;100.00;100838.56;5096853;28;20063;-82
2021/09/25 07:08:48;;;;;;;1.02;0.80;;;;;;;14.89;100.00;100837.13;5101322;28;20048;-83
2021/09/25 07:11:17;;;;;;;1.38;0.90;;;;;;;14.81;100.00;100839.78;5098901;28;20036;-83
2021/09/25 07:13:52;;;;;;;1.55;1.00;;;;;;;14.87;100.00;100839.34;5100031;28;20047;-83
2021/09/25 07:16:26;;;;;;;1.73;0.90;;;;;;;14.79;100.00;100845.56;5095918;28;20051;-83
2021/09/25 07:18:59;;;;;;;1.02;0.93;;;;;;;14.84;100.00;100850.94;5097855;28;20048;-82
2021/09/25 07:21:27;;;;;;;0.95;0.85;;;;;;;14.79;100.00;100857.34;5099420;28;20047;-83
2021/09/25 07:24:00;;;;;;;0.82;0.80;;;;;;;14.86;100.00;100856.94;5101504;28;20048;-82
2021/09/25 07:26:34;;;;;;;1.25;1.00;;;;;;;14.91;100.00;100853.25;5100173;28;20074;-83
2021/09/25 07:29:08;;;;;;;1.30;0.98;;;;;;;14.79;100.00;100859.28;5103324;28;20059;-82
2021/09/25 07:31:41;;;;;;;0.95;0.90;;;;;;;14.88;100.00;100873.06;5096884;28;20055;-81
2021/09/25 07:34:15;;;;;;;1.30;0.90;;;;;;;14.78;100.00;100872.13;5098893;28;20047;-83
2021/09/25 07:36:47;;;;;;;0.88;0.80;;;;;;;14.80;100.00;100877.31;5101809;27;20067;-83
2021/09/25 07:39:21;;;;;;;1.42;1.00;;;;;;;14.84;100.00;100872.84;5102357;28;20059;-82
2021/09/25 07:41:54;;;;;;;1.27;0.93;;;;;;;14.95;100.00;100882.50;5102923;28;20434;-84
2021/09/25 07:44:29;;;;;;;1.10;0.98;;;;;;;14.90;100.00;100873.56;5096117;28;20051;-83
2021/09/25 07:47:03;;;;;;;1.48;1.00;;;;;;;14.93;100.00;100886.66;5099479;28;20039;-82
2021/09/25 07:49:36;;;;;;;1.48;1.02;;;;;;;15.04;100.00;100888.09;5097262;28;20047;-83
2021/09/25 07:52:09;;;;;;;1.70;1.00;;;;;;;14.88;100.00;100884.81;5105392;28;20040;-82
2021/09/25 07:54:42;;;;;;;1.27;1.00;;;;;;;15.07;100.00;100883.94;5098568;28;20047;-82
2021/09/25 07:57:15;;;;;;;1.45;1.20;;;;;;;15.02;100.00;100878.53;5096011;28;20055;-83
2021/09/25 07:59:45;;;;;;;1.27;0.90;;;;;;;15.06;100.00;100887.78;5100599;28;20059;-83
2021/09/25 08:02:18;;;;;;;1.17;1.02;;;;;;;15.15;100.00;100894.19;5103538;28;20418;-82
2021/09/25 08:04:51;;;;;;;1.90;1.10;;;;;;;15.17;100.00;100889.19;5097042;28;20047;-83
2021/09/25 08:07:25;;;;;;;1.33;1.00;;;;;;;15.14;100.00;100898.84;5097467;28;20062;-82
2021/09/25 08:09:53;;;;;;;1.40;1.00;;;;;;;15.16;100.00;100901.25;5098384;28;20044;-82
2021/09/25 08:12:27;;;;;;;1.63;1.00;;;;;;;15.34;100.00;100895.97;5105136;28;20494;-82
2021/09/25 08:14:57;;;;;;;1.20;1.10;;;;;;;15.26;100.00;100901.06;5093070;28;20059;-82
2021/09/25 08:17:30;;;;;;;1.10;0.93;;;;;;;15.28;100.00;100907.03;5097142;28;20056;-80
2021/09/25 08:20:05;;;;;;;1.15;0.90;;;;;;;15.23;100.00;100920.88;5100527;28;20052;-81
2021/09/25 08:22:40;;;;;;;1.75;0.90;;;;;;;15.32;100.00;100915.47;5103486;28;20048;-81
2021/09/25 08:25:14;;;;;;;1.33;0.85;;;;;;;15.33;100.00;100925.34;5093809;28;20432;-79
2021/09/25 08:27:48;;;;;;;0.93;0.80;;;;;;;15.34;100.00;100917.91;5101140;28;20048;-79
2021/09/25 08:30:19;;;;;;;1.33;0.90;;;;;;;15.37;100.00;100920.88;5107147;28;20047;-79
2021/09/25 08:32:52;;;;;;;1.23;0.90;;;;;;;15.46;100.00;100924.50;5104575;28;20411;-81
2021/09/25 08:35:22;;;;;;;1.23;0.88;;;;;;;15.55;100.00;100921.03;5101057;28;20059;-80
2021/09/25 08:37:55;;;;;;;1.05;0.80;;;;;;;15.59;100.00;100925.59;5099768;28;20040;-79
2021/09/25 08:40:28;;;;;;;0.90;0.80;;;;;;;15.76;100.00;100916.72;5099533;28;20039;-82
2021/09/25 08:42:56;;;;;;;0.88;0.73;;;;;;;15.68;100.00;100920.19;5091343;28;20044;-80
2021/09/25 08:45:26;;;;;;;1.45;0.73;;;;;;;15.73;100.00;100925.56;5108271;28;20059;-81
2021/09/25 08:48:05;;;;;;;0.82;0.73;;;;;;;15.81;100.00;100929.53;5096316;28;20052;-83
2021/09/25 08:50:34;;;;;;;0.88;0.70;;;;;;;15.79;100.00;100934.50;5099378;28;20054;-82
2021/09/25 08:53:02;;;;;;;0.73;0.68;;;;;;;15.88;100.00;100937.34;5103660;28;20048;-80
2021/09/25 08:55:35;;;;;;;0.90;0.70;;;;;;;15.85;100.00;100941.50;5100030;28;20048;-82
2021/09/25 08:58:10;;;;;;;0.70;0.65;;;;;;;16.00;100.00;100939.56;5098120;28;20040;-79
2021/09/25 09:00:46;;;;;;;1.33;0.70;;;;;;;16.13;100.00;100957.94;5099150;28;20052;-81
2021/09/25 09:03:23;;;;;;;1.08;0.70;;;;;;;16.09;100.00;100949.47;5095185;28;20039;-80
2021/09/25 09:06:05;;;;;;;;;;;;;;;16.22;100.00;100939.56;5097033;28;20492;-80
2021/09/25 09:08:40;;;;;;;1.73;0.70;;;;;;;16.23;100.00;100929.41;5098472;28;20260;-80
2021/09/25 09:11:15;;;;;;;0.80;0.63;;;;;;;16.28;100.00;100921.84;5095743;28;20036;-81
2021/09/25 09:13:46;;;;;;;1.00;0.60;;;;;;;16.32;100.00;100933.84;5100700;28;20036;-81
2021/09/25 09:16:21;;;;;;;0.70;0.60;;;;;;;16.27;100.00;100944.94;5100664;28;20042;-79
2021/09/25 09:18:54;;;;;;;0.60;0.60;;;;;;;16.28;100.00;100943.00;5095654;28;20071;-80
2021/09/25 09:21:25;;;;;;;0.70;0.60;;;;;;;16.32;100.00;100928.34;5096960;28;20395;-80
2021/09/25 09:24:00;;;;;;;0.77;0.67;;;;;;;16.37;100.00;100943.06;5097440;28;20059;-79
2021/09/25 09:26:35;;;;;;;1.05;0.60;;;;;;;16.34;100.00;100944.50;5095579;28;20665;-80
2021/09/25 09:29:09;;;;;;;0.40;0.40;;;;;;;16.32;100.00;100939.31;5096388;28;20035;-79
2021/09/25 09:31:44;;;;;;;0.50;0.50;;;;;;;16.39;100.00;100927.06;5095811;28;20503;-80
2021/09/25 09:34:18;;;;;;;0.63;0.50;;;;;;;16.39;100.00;100932.56;5098889;28;20419;-79
2021/09/25 09:36:46;;;;;;;0.57;0.52;;;;;;;16.33;100.00;100940.13;5094517;28;20044;-79
2021/09/25 09:39:23;;;;;;;0.50;0.50;;;;;;;16.46;100.00;100946.66;5095039;28;20155;-80
2021/09/25 09:41:58;;;;;;;0.83;0.60;;;;;;;16.48;100.00;100942.50;5098076;28;20679;-79
2021/09/25 09:44:33;;;;;;;1.10;0.70;;;;;;;16.53;100.00;100949.81;5097310;28;20055;-81
2021/09/25 09:47:10;;;;;;;0.98;0.60;;;;;;;16.62;100.00;100936.91;5088958;28;20052;-80
2021/09/25 09:49:41;;;;;;;0.43;0.40;;;;;;;16.86;100.00;100935.72;5092040;28;20039;-80
2021/09/25 09:52:16;;;;;;;0.68;0.50;;;;;;;16.83;100.00;100939.94;5095773;28;20058;-79
2021/09/25 09:54:53;;;;;;;1.15;0.60;;;;;;;16.80;100.00;100929.56;5101781;28;20067;-81
2021/09/25 09:57:28;;;;;;;0.40;0.40;;;;;;;16.97;100.00;100936.31;5101971;28;20040;-79
2021/09/25 10:00:02;;;;;;;0.75;0.40;;;;;;;17.17;100.00;100935.75;5102598;28;20075;-80
2021/09/25 10:02:37;;;;;;;0.47;0.47;;;;;;;17.21;100.00;100935.09;5104416;28;20048;-79
2021/09/25 10:05:11;;;;;;;1.13;0.60;;;;;;;17.15;100.00;100938.00;5091400;28;20040;-80
2021/09/25 10:07:47;;;;;;;0.50;0.50;;;;;;;17.12;100.00;100940.56;5102156;28;20055;-79
2021/09/25 10:10:21;;;;;;;0.80;0.52;;;;;;;17.09;100.00;100924.72;5095140;28;20051;-78
2021/09/25 10:12:55;;;;;;;0.50;0.50;;;;;;;17.35;100.00;100944.06;5090644;28;20051;-78
2021/09/25 10:15:29;;;;;;;0.90;0.50;;;;;;;17.28;100.00;100947.25;5097946;28;20047;-80
2021/09/25 10:18:04;;;;;;;0.47;0.40;;;;;;;17.31;100.00;100945.81;5092826;28;20044;-80
2021/09/25 10:20:32;;;;;;;0.50;0.50;;;;;;;17.40;99.46;100954.91;5096166;28;20055;-81
2021/09/25 10:23:05;;;;;;;0.82;0.52;;;;;;;17.35;99.16;100938.56;5090670;28;20527;-81
2021/09/25 10:25:33;;;;;;;0.50;0.40;;;;;;;17.56;98.79;100948.97;5095129;28;20044;-81
2021/09/25 10:28:25;;;;;;;1.05;0.50;;;;;;;17.40;98.76;100945.84;5097699;28;20043;-80
2021/09/25 10:30:58;;;;;;;0.50;0.50;;;;;;;17.39;99.80;100945.03;5103906;28;20060;-80
2021/09/25 10:33:34;;;;;;;0.82;0.50;;;;;;;17.48;98.85;100947.78;5094302;28;20036;-81
2021/09/25 10:36:04;;;;;;;0.40;0.40;;;;;;;17.43;98.31;100951.53;5095665;28;20172;-82
2021/09/25 10:38:39;;;;;;;0.40;0.40;;;;;;;17.47;99.02;100957.22;5102604;28;20048;-80
2021/09/25 10:41:15;;;;;;;0.50;0.40;;;;;;;17.43;99.10;100962.53;5100852;28;20419;-81
2021/09/25 10:43:44;;;;;;;0.80;0.50;;;;;;;17.41;99.88;100958.47;5107413;28;20051;-80
2021/09/25 10:46:18;;;;;;;0.65;0.50;;;;;;;17.53;98.54;100957.88;5106102;28;20048;-80
2021/09/25 10:48:54;;;;;;;0.40;0.40;;;;;;;17.58;99.31;100953.03;5104465;28;20427;-82
2021/09/25 10:51:30;;;;;;;0.50;0.50;;;;;;;17.59;97.89;100951.88;5108779;28;20059;-81
2021/09/25 10:54:03;;;;;;;0.40;0.40;;;;;;;17.74;98.03;100953.34;5102897;28;20043;-81
2021/09/25 10:56:47;;;;;;;0.52;0.43;;;;;;;18.14;98.02;100960.69;5109597;28;20039;-81
2021/09/25 10:59:20;;;;;;;0.70;0.60;;;;;;;17.98;98.35;100968.63;5107338;28;20054;-82
2021/09/25 11:01:55;;;;;;;0.50;0.40;;;;;;;17.70;96.95;100957.88;5106844;28;20062;-80
2021/09/25 11:04:34;;;;;;;0.43;0.40;;;;;;;17.86;99.52;100963.75;5103844;28;20047;-83
2021/09/25 11:07:08;;;;;;;0.38;0.30;;;;;;;17.92;97.73;100962.47;5100128;28;20069;-80
2021/09/25 11:09:42;;;;;;;0.55;0.50;;;;;;;18.02;98.15;100953.91;5102398;28;20051;-82
2021/09/25 11:12:12;;;;;;;0.30;0.30;;;;;;;18.00;96.32;100945.13;5100766;28;20039;-82
2021/09/25 11:14:47;;;;;;;0.45;0.40;;;;;;;18.01;96.59;100954.22;5109013;28;20491;-82
2021/09/25 11:17:27;;;;;;;0.60;0.47;;;;;;;18.39;96.78;100956.28;5108305;28;20044;-82
2021/09/25 11:19:58;;;;;;;0.52;0.40;;;;;;;18.23;94.94;100957.94;5108179;28;20068;-81
2021/09/25 11:22:33;;;;;;;0.32;0.30;;;;;;;18.18;96.36;100964.44;5105375;28;20051;-80
2021/09/25 11:25:10;;;;;;;0.40;0.38;;;;;;;18.42;94.98;100960.34;5099598;28;20051;-80
2021/09/25 11:27:40;;;;;;;0.40;0.40;;;;;;;18.15;94.13;100954.88;5112968;28;20793;-82
2021/09/25 11:30:16;;;;;;;0.40;0.40;;;;;;;18.13;94.21;100950.81;5112678;28;20078;-81
2021/09/25 11:32:47;;;;;;;0.30;0.30;;;;;;;18.21;94.33;100961.00;5101695;28;20052;-82
2021/09/25 11:35:23;;;;;;;0.40;0.40;;;;;;;18.08;94.67;100962.00;5110131;28;20051;-80
2021/09/25 11:37:58;;;;;;;0.40;0.30;;;;;;;18.26;95.24;100955.34;5108984;28;20044;-80
2021/09/25 11:40:28;;;;;;;0.55;0.47;;;;;;;18.16;94.87;100939.97;5098181;28;20063;-79
2021/09/25 11:43:03;;;;;;;0.30;0.30;;;;;;;18.30;94.68;100953.56;5108363;28;20048;-81
2021/09/25 11:45:39;;;;;;;0.30;0.30;;;;;;;18.35;94.64;100956.16;5109322;28;20044;-82